sensor_id;sensor_type;location;lat;lon;timestamp;P1;durP1;ratioP1;P2;durP2;ratioP2
8213;SDS011;4148;47.974;7.824;2022-12-11T00:00:58;12.80;;;7.77;;
8213;SDS011;4148;47.974;7.824;2022-12-11T00:03:26;12.40;;;6.87;;
8213;SDS011;4148;47.974;7.824;2022-12-11T00:05:54;13.20;;;7.07;;
8213;SDS011;4148;47.974;7.824;2022-12-11T00:08:21;10.80;;;6.53;;
8213;SDS011;4148;47.974;7.824;2022-12-11T00:10:49;13.07;;;7.17;;
8213;SDS011;4148;47.974;7.824;2022-12-11T00:13:19;12.97;;;7.70;;
8213;SDS011;4148;47.974;7.824;2022-12-11T00:15:46;10.47;;;6.07;;
8213;SDS011;4148;47.974;7.824;2022-12-11T00:18:14;14.87;;;6.30;;
8213;SDS011;4148;47.974;7.824;2022-12-11T00:20:42;11.70;;;6.70;;
8213;SDS011;4148;47.974;7.824;2022-12-11T00:23:10;11.93;;;6.57;;
8213;SDS011;4148;47.974;7.824;2022-12-11T00:25:40;13.30;;;7.30;;
8213;SDS011;4148;47.974;7.824;2022-12-11T00:28:09;11.57;;;6.97;;
8213;SDS011;4148;47.974;7.824;2022-12-11T00:30:39;11.70;;;6.67;;
8213;SDS011;4148;47.974;7.824;2022-12-11T00:33:08;12.20;;;6.77;;
8213;SDS011;4148;47.974;7.824;2022-12-11T00:35:37;13.67;;;7.97;;
8213;SDS011;4148;47.974;7.824;2022-12-11T00:38:05;15.70;;;7.20;;
8213;SDS011;4148;47.974;7.824;2022-12-11T00:40:33;12.97;;;6.67;;
8213;SDS011;4148;47.974;7.824;2022-12-11T00:43:01;11.77;;;6.40;;
8213;SDS011;4148;47.974;7.824;2022-12-11T00:45:30;12.40;;;6.10;;
8213;SDS011;4148;47.974;7.824;2022-12-11T00:47:59;10.27;;;6.33;;
8213;SDS011;4148;47.974;7.824;2022-12-11T00:50:27;11.73;;;7.07;;
8213;SDS011;4148;47.974;7.824;2022-12-11T00:52:55;12.53;;;6.53;;
8213;SDS011;4148;47.974;7.824;2022-12-11T00:55:22;12.73;;;6.83;;
8213;SDS011;4148;47.974;7.824;2022-12-11T00:57:53;11.50;;;6.07;;
8213;SDS011;4148;47.974;7.824;2022-12-11T01:00:21;10.30;;;6.00;;
8213;SDS011;4148;47.974;7.824;2022-12-11T01:02:49;10.73;;;5.67;;
8213;SDS011;4148;47.974;7.824;2022-12-11T01:05:19;11.20;;;5.90;;
8213;SDS011;4148;47.974;7.824;2022-12-11T01:07:47;11.17;;;6.70;;
8213;SDS011;4148;47.974;7.824;2022-12-11T01:10:15;9.60;;;5.37;;
8213;SDS011;4148;47.974;7.824;2022-12-11T01:12:52;11.87;;;5.87;;
8213;SDS011;4148;47.974;7.824;2022-12-11T01:15:21;9.73;;;5.97;;
8213;SDS011;4148;47.974;7.824;2022-12-11T01:17:52;10.30;;;6.20;;
8213;SDS011;4148;47.974;7.824;2022-12-11T01:20:22;12.90;;;6.10;;
8213;SDS011;4148;47.974;7.824;2022-12-11T01:22:51;11.93;;;6.83;;
8213;SDS011;4148;47.974;7.824;2022-12-11T01:25:19;10.67;;;6.40;;
8213;SDS011;4148;47.974;7.824;2022-12-11T01:27:48;11.33;;;6.70;;
8213;SDS011;4148;47.974;7.824;2022-12-11T01:30:18;10.53;;;6.23;;
8213;SDS011;4148;47.974;7.824;2022-12-11T01:32:47;11.70;;;6.67;;
8213;SDS011;4148;47.974;7.824;2022-12-11T01:35:15;12.27;;;7.30;;
8213;SDS011;4148;47.974;7.824;2022-12-11T01:37:45;11.60;;;6.77;;
8213;SDS011;4148;47.974;7.824;2022-12-11T01:40:13;12.10;;;7.03;;
8213;SDS011;4148;47.974;7.824;2022-12-11T01:42:42;13.73;;;7.43;;
8213;SDS011;4148;47.974;7.824;2022-12-11T01:47:59;12.00;;;7.60;;
8213;SDS011;4148;47.974;7.824;2022-12-11T01:50:32;13.10;;;7.70;;
8213;SDS011;4148;47.974;7.824;2022-12-11T01:53:06;15.37;;;7.30;;
8213;SDS011;4148;47.974;7.824;2022-12-11T01:55:36;11.73;;;7.33;;
8213;SDS011;4148;47.974;7.824;2022-12-11T01:58:05;11.50;;;7.03;;
8213;SDS011;4148;47.974;7.824;2022-12-11T02:00:34;15.53;;;7.47;;
8213;SDS011;4148;47.974;7.824;2022-12-11T02:03:02;12.77;;;7.63;;
8213;SDS011;4148;47.974;7.824;2022-12-11T02:05:30;12.07;;;6.53;;
8213;SDS011;4148;47.974;7.824;2022-12-11T02:07:59;13.77;;;7.53;;
8213;SDS011;4148;47.974;7.824;2022-12-11T02:10:34;11.40;;;6.70;;
8213;SDS011;4148;47.974;7.824;2022-12-11T02:13:16;13.90;;;6.97;;
8213;SDS011;4148;47.974;7.824;2022-12-11T02:15:47;11.57;;;7.07;;
8213;SDS011;4148;47.974;7.824;2022-12-11T02:18:22;10.43;;;6.60;;
8213;SDS011;4148;47.974;7.824;2022-12-11T02:20:56;13.17;;;7.40;;
8213;SDS011;4148;47.974;7.824;2022-12-11T02:23:46;10.00;;;6.70;;
8213;SDS011;4148;47.974;7.824;2022-12-11T02:29:24;13.47;;;7.20;;
8213;SDS011;4148;47.974;7.824;2022-12-11T02:31:57;10.30;;;6.50;;
8213;SDS011;4148;47.974;7.824;2022-12-11T02:34:30;11.13;;;7.10;;
8213;SDS011;4148;47.974;7.824;2022-12-11T02:37:04;11.20;;;6.40;;
8213;SDS011;4148;47.974;7.824;2022-12-11T02:39:35;10.80;;;5.93;;
8213;SDS011;4148;47.974;7.824;2022-12-11T02:42:06;12.00;;;6.20;;
8213;SDS011;4148;47.974;7.824;2022-12-11T02:44:37;12.43;;;7.03;;
8213;SDS011;4148;47.974;7.824;2022-12-11T02:47:07;9.83;;;6.30;;
8213;SDS011;4148;47.974;7.824;2022-12-11T02:49:40;14.00;;;7.80;;
8213;SDS011;4148;47.974;7.824;2022-12-11T02:52:11;12.37;;;6.53;;
8213;SDS011;4148;47.974;7.824;2022-12-11T02:54:41;11.03;;;6.90;;
8213;SDS011;4148;47.974;7.824;2022-12-11T02:57:12;12.50;;;7.17;;
8213;SDS011;4148;47.974;7.824;2022-12-11T02:59:44;13.87;;;7.97;;
8213;SDS011;4148;47.974;7.824;2022-12-11T03:02:13;14.53;;;8.27;;
8213;SDS011;4148;47.974;7.824;2022-12-11T03:04:44;12.67;;;7.30;;
8213;SDS011;4148;47.974;7.824;2022-12-11T03:07:14;13.87;;;7.73;;
8213;SDS011;4148;47.974;7.824;2022-12-11T03:09:48;13.40;;;8.03;;
8213;SDS011;4148;47.974;7.824;2022-12-11T03:12:17;13.17;;;7.87;;
8213;SDS011;4148;47.974;7.824;2022-12-11T03:14:48;13.40;;;7.80;;
8213;SDS011;4148;47.974;7.824;2022-12-11T03:17:17;16.33;;;9.67;;
8213;SDS011;4148;47.974;7.824;2022-12-11T03:19:49;16.83;;;10.13;;
8213;SDS011;4148;47.974;7.824;2022-12-11T03:22:23;23.90;;;12.73;;
8213;SDS011;4148;47.974;7.824;2022-12-11T03:24:57;20.40;;;10.50;;
8213;SDS011;4148;47.974;7.824;2022-12-11T03:27:29;21.60;;;12.23;;
8213;SDS011;4148;47.974;7.824;2022-12-11T03:30:03;18.60;;;11.03;;
8213;SDS011;4148;47.974;7.824;2022-12-11T03:32:35;21.97;;;11.57;;
8213;SDS011;4148;47.974;7.824;2022-12-11T03:35:07;18.87;;;11.20;;
8213;SDS011;4148;47.974;7.824;2022-12-11T03:37:40;19.37;;;10.63;;
8213;SDS011;4148;47.974;7.824;2022-12-11T03:40:11;18.50;;;11.17;;
8213;SDS011;4148;47.974;7.824;2022-12-11T03:42:41;19.57;;;11.70;;
8213;SDS011;4148;47.974;7.824;2022-12-11T03:45:13;17.80;;;10.50;;
8213;SDS011;4148;47.974;7.824;2022-12-11T03:47:43;16.00;;;9.50;;
8213;SDS011;4148;47.974;7.824;2022-12-11T03:50:12;14.23;;;8.53;;
8213;SDS011;4148;47.974;7.824;2022-12-11T03:52:45;14.40;;;8.50;;
8213;SDS011;4148;47.974;7.824;2022-12-11T03:55:14;15.63;;;8.20;;
8213;SDS011;4148;47.974;7.824;2022-12-11T03:57:44;14.43;;;8.43;;
8213;SDS011;4148;47.974;7.824;2022-12-11T04:00:14;12.03;;;7.33;;
8213;SDS011;4148;47.974;7.824;2022-12-11T04:02:45;12.60;;;7.83;;
8213;SDS011;4148;47.974;7.824;2022-12-11T04:05:39;13.77;;;7.70;;
8213;SDS011;4148;47.974;7.824;2022-12-11T04:08:08;12.30;;;7.07;;
8213;SDS011;4148;47.974;7.824;2022-12-11T04:10:37;12.70;;;7.03;;
8213;SDS011;4148;47.974;7.824;2022-12-11T04:13:05;11.07;;;6.97;;
8213;SDS011;4148;47.974;7.824;2022-12-11T04:15:35;13.70;;;7.37;;
8213;SDS011;4148;47.974;7.824;2022-12-11T04:18:03;13.00;;;7.53;;
8213;SDS011;4148;47.974;7.824;2022-12-11T04:20:51;14.50;;;7.00;;
8213;SDS011;4148;47.974;7.824;2022-12-11T04:23:37;16.20;;;8.40;;
8213;SDS011;4148;47.974;7.824;2022-12-11T04:26:22;15.73;;;8.57;;
8213;SDS011;4148;47.974;7.824;2022-12-11T04:28:50;13.80;;;7.20;;
8213;SDS011;4148;47.974;7.824;2022-12-11T04:31:20;13.03;;;7.67;;
8213;SDS011;4148;47.974;7.824;2022-12-11T04:33:49;13.50;;;8.00;;
8213;SDS011;4148;47.974;7.824;2022-12-11T04:36:17;14.97;;;8.23;;
8213;SDS011;4148;47.974;7.824;2022-12-11T04:38:45;15.87;;;8.60;;
8213;SDS011;4148;47.974;7.824;2022-12-11T04:41:14;15.70;;;8.60;;
8213;SDS011;4148;47.974;7.824;2022-12-11T04:43:42;16.40;;;8.57;;
8213;SDS011;4148;47.974;7.824;2022-12-11T04:46:12;14.53;;;8.50;;
8213;SDS011;4148;47.974;7.824;2022-12-11T04:48:43;15.80;;;8.27;;
8213;SDS011;4148;47.974;7.824;2022-12-11T04:51:12;15.10;;;8.93;;
8213;SDS011;4148;47.974;7.824;2022-12-11T04:53:40;14.23;;;8.70;;
8213;SDS011;4148;47.974;7.824;2022-12-11T04:56:09;16.30;;;9.03;;
8213;SDS011;4148;47.974;7.824;2022-12-11T04:58:39;18.50;;;9.60;;
8213;SDS011;4148;47.974;7.824;2022-12-11T05:01:09;17.20;;;9.73;;
8213;SDS011;4148;47.974;7.824;2022-12-11T05:03:37;16.43;;;9.63;;
8213;SDS011;4148;47.974;7.824;2022-12-11T05:06:07;18.23;;;10.77;;
8213;SDS011;4148;47.974;7.824;2022-12-11T05:08:37;21.83;;;12.03;;
8213;SDS011;4148;47.974;7.824;2022-12-11T05:11:07;20.50;;;11.87;;
8213;SDS011;4148;47.974;7.824;2022-12-11T05:13:37;21.97;;;11.63;;
8213;SDS011;4148;47.974;7.824;2022-12-11T05:16:06;25.23;;;13.60;;
8213;SDS011;4148;47.974;7.824;2022-12-11T05:18:35;21.37;;;12.40;;
8213;SDS011;4148;47.974;7.824;2022-12-11T05:21:03;27.10;;;13.37;;
8213;SDS011;4148;47.974;7.824;2022-12-11T05:23:35;24.77;;;13.17;;
8213;SDS011;4148;47.974;7.824;2022-12-11T05:26:05;31.83;;;15.33;;
8213;SDS011;4148;47.974;7.824;2022-12-11T05:28:35;27.70;;;13.50;;
8213;SDS011;4148;47.974;7.824;2022-12-11T05:31:05;27.23;;;14.83;;
8213;SDS011;4148;47.974;7.824;2022-12-11T05:33:34;28.60;;;13.87;;
8213;SDS011;4148;47.974;7.824;2022-12-11T05:36:02;25.87;;;15.03;;
8213;SDS011;4148;47.974;7.824;2022-12-11T05:38:30;28.53;;;14.90;;
8213;SDS011;4148;47.974;7.824;2022-12-11T05:41:00;28.97;;;14.23;;
8213;SDS011;4148;47.974;7.824;2022-12-11T05:43:30;31.57;;;15.30;;
8213;SDS011;4148;47.974;7.824;2022-12-11T05:46:03;22.80;;;13.20;;
8213;SDS011;4148;47.974;7.824;2022-12-11T05:48:32;27.43;;;14.60;;
8213;SDS011;4148;47.974;7.824;2022-12-11T05:51:00;21.40;;;12.33;;
8213;SDS011;4148;47.974;7.824;2022-12-11T05:53:29;28.27;;;13.43;;
8213;SDS011;4148;47.974;7.824;2022-12-11T05:56:01;21.10;;;12.67;;
8213;SDS011;4148;47.974;7.824;2022-12-11T05:58:29;20.93;;;11.53;;
8213;SDS011;4148;47.974;7.824;2022-12-11T06:00:57;23.83;;;11.70;;
8213;SDS011;4148;47.974;7.824;2022-12-11T06:03:26;20.47;;;10.07;;
8213;SDS011;4148;47.974;7.824;2022-12-11T06:05:54;22.70;;;11.33;;
8213;SDS011;4148;47.974;7.824;2022-12-11T06:08:22;18.33;;;10.80;;
8213;SDS011;4148;47.974;7.824;2022-12-11T06:10:49;18.03;;;10.70;;
8213;SDS011;4148;47.974;7.824;2022-12-11T06:13:19;23.23;;;11.13;;
8213;SDS011;4148;47.974;7.824;2022-12-11T06:15:47;19.63;;;11.10;;
8213;SDS011;4148;47.974;7.824;2022-12-11T06:18:14;17.80;;;9.87;;
8213;SDS011;4148;47.974;7.824;2022-12-11T06:20:43;23.30;;;12.10;;
8213;SDS011;4148;47.974;7.824;2022-12-11T06:23:11;22.33;;;11.57;;
8213;SDS011;4148;47.974;7.824;2022-12-11T06:25:39;18.30;;;10.10;;
8213;SDS011;4148;47.974;7.824;2022-12-11T06:28:07;20.63;;;11.43;;
8213;SDS011;4148;47.974;7.824;2022-12-11T06:30:36;18.30;;;11.10;;
8213;SDS011;4148;47.974;7.824;2022-12-11T06:33:04;15.80;;;9.27;;
8213;SDS011;4148;47.974;7.824;2022-12-11T06:35:32;24.80;;;13.03;;
8213;SDS011;4148;47.974;7.824;2022-12-11T06:38:07;24.73;;;12.63;;
8213;SDS011;4148;47.974;7.824;2022-12-11T06:40:36;22.57;;;12.40;;
8213;SDS011;4148;47.974;7.824;2022-12-11T06:43:04;23.60;;;12.43;;
8213;SDS011;4148;47.974;7.824;2022-12-11T06:45:31;23.13;;;12.53;;
8213;SDS011;4148;47.974;7.824;2022-12-11T06:48:01;30.60;;;14.77;;
8213;SDS011;4148;47.974;7.824;2022-12-11T06:50:29;22.80;;;12.13;;
8213;SDS011;4148;47.974;7.824;2022-12-11T06:52:56;24.37;;;11.93;;
8213;SDS011;4148;47.974;7.824;2022-12-11T06:55:24;25.10;;;13.37;;
8213;SDS011;4148;47.974;7.824;2022-12-11T06:57:52;23.60;;;11.87;;
8213;SDS011;4148;47.974;7.824;2022-12-11T07:00:20;23.97;;;10.97;;
8213;SDS011;4148;47.974;7.824;2022-12-11T07:02:49;22.40;;;11.27;;
8213;SDS011;4148;47.974;7.824;2022-12-11T07:05:18;21.27;;;10.27;;
8213;SDS011;4148;47.974;7.824;2022-12-11T07:07:46;19.10;;;10.40;;
8213;SDS011;4148;47.974;7.824;2022-12-11T07:10:14;22.80;;;11.10;;
8213;SDS011;4148;47.974;7.824;2022-12-11T07:12:42;21.50;;;10.87;;
8213;SDS011;4148;47.974;7.824;2022-12-11T07:15:10;19.50;;;10.97;;
8213;SDS011;4148;47.974;7.824;2022-12-11T07:17:39;19.20;;;11.40;;
8213;SDS011;4148;47.974;7.824;2022-12-11T07:20:07;20.83;;;10.20;;
8213;SDS011;4148;47.974;7.824;2022-12-11T07:22:37;18.87;;;10.40;;
8213;SDS011;4148;47.974;7.824;2022-12-11T07:25:11;23.07;;;10.77;;
8213;SDS011;4148;47.974;7.824;2022-12-11T07:27:40;22.70;;;11.30;;
8213;SDS011;4148;47.974;7.824;2022-12-11T07:30:09;22.40;;;11.70;;
8213;SDS011;4148;47.974;7.824;2022-12-11T07:32:37;21.23;;;10.90;;
8213;SDS011;4148;47.974;7.824;2022-12-11T07:35:05;21.47;;;10.57;;
8213;SDS011;4148;47.974;7.824;2022-12-11T07:37:34;23.40;;;11.73;;
8213;SDS011;4148;47.974;7.824;2022-12-11T07:40:05;24.30;;;11.90;;
8213;SDS011;4148;47.974;7.824;2022-12-11T07:42:34;23.80;;;11.20;;
8213;SDS011;4148;47.974;7.824;2022-12-11T07:45:08;21.80;;;12.17;;
8213;SDS011;4148;47.974;7.824;2022-12-11T07:47:37;20.07;;;11.50;;
8213;SDS011;4148;47.974;7.824;2022-12-11T07:50:05;20.57;;;10.43;;
8213;SDS011;4148;47.974;7.824;2022-12-11T07:52:33;25.90;;;11.67;;
8213;SDS011;4148;47.974;7.824;2022-12-11T07:55:01;19.43;;;11.83;;
8213;SDS011;4148;47.974;7.824;2022-12-11T07:57:30;25.87;;;11.67;;
8213;SDS011;4148;47.974;7.824;2022-12-11T07:59:58;23.00;;;11.97;;
8213;SDS011;4148;47.974;7.824;2022-12-11T08:02:26;21.67;;;11.40;;
8213;SDS011;4148;47.974;7.824;2022-12-11T08:05:00;23.73;;;11.50;;
8213;SDS011;4148;47.974;7.824;2022-12-11T08:07:28;24.73;;;12.03;;
8213;SDS011;4148;47.974;7.824;2022-12-11T08:09:56;24.20;;;13.13;;
8213;SDS011;4148;47.974;7.824;2022-12-11T08:12:24;26.67;;;11.90;;
8213;SDS011;4148;47.974;7.824;2022-12-11T08:14:53;23.40;;;11.00;;
8213;SDS011;4148;47.974;7.824;2022-12-11T08:17:21;20.27;;;11.07;;
8213;SDS011;4148;47.974;7.824;2022-12-11T08:19:56;24.93;;;11.90;;
8213;SDS011;4148;47.974;7.824;2022-12-11T08:22:24;25.57;;;12.90;;
8213;SDS011;4148;47.974;7.824;2022-12-11T08:24:51;21.47;;;11.10;;
8213;SDS011;4148;47.974;7.824;2022-12-11T08:27:19;22.43;;;12.43;;
8213;SDS011;4148;47.974;7.824;2022-12-11T08:29:47;25.83;;;11.87;;
8213;SDS011;4148;47.974;7.824;2022-12-11T08:32:16;28.70;;;14.20;;
8213;SDS011;4148;47.974;7.824;2022-12-11T08:34:44;22.47;;;11.50;;
8213;SDS011;4148;47.974;7.824;2022-12-11T08:37:12;21.80;;;11.83;;
8213;SDS011;4148;47.974;7.824;2022-12-11T08:39:40;24.63;;;12.57;;
8213;SDS011;4148;47.974;7.824;2022-12-11T08:42:08;22.13;;;11.83;;
8213;SDS011;4148;47.974;7.824;2022-12-11T08:44:36;21.47;;;12.20;;
8213;SDS011;4148;47.974;7.824;2022-12-11T08:47:04;22.73;;;11.77;;
8213;SDS011;4148;47.974;7.824;2022-12-11T08:49:33;23.10;;;12.83;;
8213;SDS011;4148;47.974;7.824;2022-12-11T08:52:01;23.73;;;11.20;;
8213;SDS011;4148;47.974;7.824;2022-12-11T08:54:30;24.07;;;11.40;;
8213;SDS011;4148;47.974;7.824;2022-12-11T08:56:58;21.70;;;12.00;;
8213;SDS011;4148;47.974;7.824;2022-12-11T08:59:26;22.90;;;11.57;;
8213;SDS011;4148;47.974;7.824;2022-12-11T09:01:53;23.93;;;11.60;;
8213;SDS011;4148;47.974;7.824;2022-12-11T09:04:21;19.67;;;10.23;;
8213;SDS011;4148;47.974;7.824;2022-12-11T09:06:51;19.60;;;10.40;;
8213;SDS011;4148;47.974;7.824;2022-12-11T09:09:19;20.87;;;11.77;;
8213;SDS011;4148;47.974;7.824;2022-12-11T09:11:46;25.17;;;13.07;;
8213;SDS011;4148;47.974;7.824;2022-12-11T09:14:14;21.40;;;11.83;;
8213;SDS011;4148;47.974;7.824;2022-12-11T09:16:42;23.23;;;10.40;;
8213;SDS011;4148;47.974;7.824;2022-12-11T09:19:11;26.43;;;11.57;;
8213;SDS011;4148;47.974;7.824;2022-12-11T09:21:41;19.40;;;9.80;;
8213;SDS011;4148;47.974;7.824;2022-12-11T09:24:11;18.70;;;10.47;;
8213;SDS011;4148;47.974;7.824;2022-12-11T09:26:40;19.43;;;11.20;;
8213;SDS011;4148;47.974;7.824;2022-12-11T09:29:09;20.17;;;10.30;;
8213;SDS011;4148;47.974;7.824;2022-12-11T09:31:38;21.83;;;11.60;;
8213;SDS011;4148;47.974;7.824;2022-12-11T09:34:07;20.40;;;11.30;;
8213;SDS011;4148;47.974;7.824;2022-12-11T09:36:37;20.10;;;11.17;;
8213;SDS011;4148;47.974;7.824;2022-12-11T09:39:06;19.93;;;10.53;;
8213;SDS011;4148;47.974;7.824;2022-12-11T09:41:37;17.97;;;10.00;;
8213;SDS011;4148;47.974;7.824;2022-12-11T09:47:08;19.10;;;10.47;;
8213;SDS011;4148;47.974;7.824;2022-12-11T09:49:45;17.83;;;9.60;;
8213;SDS011;4148;47.974;7.824;2022-12-11T09:52:16;16.40;;;9.30;;
8213;SDS011;4148;47.974;7.824;2022-12-11T09:54:47;16.13;;;9.13;;
8213;SDS011;4148;47.974;7.824;2022-12-11T09:57:22;16.70;;;9.10;;
8213;SDS011;4148;47.974;7.824;2022-12-11T10:00:03;16.80;;;9.70;;
8213;SDS011;4148;47.974;7.824;2022-12-11T10:02:41;18.10;;;10.10;;
8213;SDS011;4148;47.974;7.824;2022-12-11T10:05:24;18.60;;;10.10;;
8213;SDS011;4148;47.974;7.824;2022-12-11T10:07:59;20.03;;;11.53;;
8213;SDS011;4148;47.974;7.824;2022-12-11T10:10:34;17.07;;;9.90;;
8213;SDS011;4148;47.974;7.824;2022-12-11T10:13:11;22.37;;;13.17;;
8213;SDS011;4148;47.974;7.824;2022-12-11T10:15:49;20.80;;;13.00;;
8213;SDS011;4148;47.974;7.824;2022-12-11T10:18:21;25.10;;;13.87;;
8213;SDS011;4148;47.974;7.824;2022-12-11T10:20:51;23.80;;;12.80;;
8213;SDS011;4148;47.974;7.824;2022-12-11T10:23:20;25.13;;;14.77;;
8213;SDS011;4148;47.974;7.824;2022-12-11T10:25:55;25.20;;;13.43;;
8213;SDS011;4148;47.974;7.824;2022-12-11T10:28:30;27.30;;;14.80;;
8213;SDS011;4148;47.974;7.824;2022-12-11T10:31:00;22.57;;;12.37;;
8213;SDS011;4148;47.974;7.824;2022-12-11T10:33:37;24.00;;;12.73;;
8213;SDS011;4148;47.974;7.824;2022-12-11T10:36:11;20.00;;;12.80;;
8213;SDS011;4148;47.974;7.824;2022-12-11T10:38:46;24.73;;;13.47;;
8213;SDS011;4148;47.974;7.824;2022-12-11T10:41:16;20.23;;;12.60;;
8213;SDS011;4148;47.974;7.824;2022-12-11T10:43:48;20.53;;;12.23;;
8213;SDS011;4148;47.974;7.824;2022-12-11T10:46:18;22.30;;;11.80;;
8213;SDS011;4148;47.974;7.824;2022-12-11T10:48:48;21.73;;;11.90;;
8213;SDS011;4148;47.974;7.824;2022-12-11T10:51:18;21.70;;;12.30;;
8213;SDS011;4148;47.974;7.824;2022-12-11T10:53:49;18.63;;;11.17;;
8213;SDS011;4148;47.974;7.824;2022-12-11T10:56:23;21.23;;;13.80;;
8213;SDS011;4148;47.974;7.824;2022-12-11T10:58:53;21.60;;;12.77;;
8213;SDS011;4148;47.974;7.824;2022-12-11T11:01:24;24.47;;;13.57;;
8213;SDS011;4148;47.974;7.824;2022-12-11T11:03:56;22.93;;;12.40;;
8213;SDS011;4148;47.974;7.824;2022-12-11T11:06:26;23.80;;;14.30;;
8213;SDS011;4148;47.974;7.824;2022-12-11T11:08:55;23.60;;;14.10;;
8213;SDS011;4148;47.974;7.824;2022-12-11T11:11:26;23.23;;;13.30;;
8213;SDS011;4148;47.974;7.824;2022-12-11T11:14:13;22.70;;;14.03;;
8213;SDS011;4148;47.974;7.824;2022-12-11T11:16:43;22.97;;;14.37;;
8213;SDS011;4148;47.974;7.824;2022-12-11T11:19:17;25.60;;;15.20;;
8213;SDS011;4148;47.974;7.824;2022-12-11T11:21:48;24.83;;;14.60;;
8213;SDS011;4148;47.974;7.824;2022-12-11T11:24:21;25.87;;;14.40;;
8213;SDS011;4148;47.974;7.824;2022-12-11T11:26:53;25.07;;;15.10;;
8213;SDS011;4148;47.974;7.824;2022-12-11T11:29:40;23.33;;;14.43;;
8213;SDS011;4148;47.974;7.824;2022-12-11T11:32:14;24.80;;;14.10;;
8213;SDS011;4148;47.974;7.824;2022-12-11T11:34:46;24.87;;;15.20;;
8213;SDS011;4148;47.974;7.824;2022-12-11T11:37:20;31.33;;;16.73;;
8213;SDS011;4148;47.974;7.824;2022-12-11T11:39:51;28.17;;;15.87;;
8213;SDS011;4148;47.974;7.824;2022-12-11T11:42:22;22.20;;;13.73;;
8213;SDS011;4148;47.974;7.824;2022-12-11T11:44:59;25.33;;;14.80;;
8213;SDS011;4148;47.974;7.824;2022-12-11T11:47:33;27.10;;;15.40;;
8213;SDS011;4148;47.974;7.824;2022-12-11T11:50:05;25.53;;;15.53;;
8213;SDS011;4148;47.974;7.824;2022-12-11T11:52:39;27.07;;;15.30;;
8213;SDS011;4148;47.974;7.824;2022-12-11T11:55:13;26.47;;;15.17;;
8213;SDS011;4148;47.974;7.824;2022-12-11T11:57:48;28.40;;;15.30;;
8213;SDS011;4148;47.974;7.824;2022-12-11T12:00:24;26.03;;;15.93;;
8213;SDS011;4148;47.974;7.824;2022-12-11T12:02:59;27.93;;;16.60;;
8213;SDS011;4148;47.974;7.824;2022-12-11T12:05:30;24.90;;;15.70;;
8213;SDS011;4148;47.974;7.824;2022-12-11T12:08:06;25.23;;;14.97;;
8213;SDS011;4148;47.974;7.824;2022-12-11T12:10:41;25.10;;;15.57;;
8213;SDS011;4148;47.974;7.824;2022-12-11T12:13:16;24.13;;;14.37;;
8213;SDS011;4148;47.974;7.824;2022-12-11T12:16:14;30.50;;;18.00;;
8213;SDS011;4148;47.974;7.824;2022-12-11T12:19:11;34.23;;;20.10;;
8213;SDS011;4148;47.974;7.824;2022-12-11T12:21:46;27.03;;;15.83;;
8213;SDS011;4148;47.974;7.824;2022-12-11T12:24:19;25.27;;;14.60;;
8213;SDS011;4148;47.974;7.824;2022-12-11T12:26:59;30.70;;;15.70;;
8213;SDS011;4148;47.974;7.824;2022-12-11T12:30:05;23.17;;;13.40;;
8213;SDS011;4148;47.974;7.824;2022-12-11T12:32:45;24.13;;;13.97;;
8213;SDS011;4148;47.974;7.824;2022-12-11T12:35:29;22.80;;;13.50;;
8213;SDS011;4148;47.974;7.824;2022-12-11T12:38:05;23.50;;;13.77;;
8213;SDS011;4148;47.974;7.824;2022-12-11T12:40:41;23.37;;;14.40;;
8213;SDS011;4148;47.974;7.824;2022-12-11T12:43:43;26.13;;;15.10;;
8213;SDS011;4148;47.974;7.824;2022-12-11T12:46:20;24.27;;;14.23;;
8213;SDS011;4148;47.974;7.824;2022-12-11T12:48:58;25.20;;;12.87;;
8213;SDS011;4148;47.974;7.824;2022-12-11T12:51:27;20.50;;;13.10;;
8213;SDS011;4148;47.974;7.824;2022-12-11T12:53:56;24.00;;;13.43;;
8213;SDS011;4148;47.974;7.824;2022-12-11T12:56:30;25.53;;;14.03;;
8213;SDS011;4148;47.974;7.824;2022-12-11T12:58:59;26.00;;;15.33;;
8213;SDS011;4148;47.974;7.824;2022-12-11T13:01:27;23.27;;;14.30;;
8213;SDS011;4148;47.974;7.824;2022-12-11T13:03:58;24.80;;;13.90;;
8213;SDS011;4148;47.974;7.824;2022-12-11T13:06:29;22.77;;;13.00;;
8213;SDS011;4148;47.974;7.824;2022-12-11T13:09:09;21.83;;;13.80;;
8213;SDS011;4148;47.974;7.824;2022-12-11T13:11:41;24.80;;;13.40;;
8213;SDS011;4148;47.974;7.824;2022-12-11T13:14:21;28.03;;;13.60;;
8213;SDS011;4148;47.974;7.824;2022-12-11T13:17:03;26.60;;;14.80;;
8213;SDS011;4148;47.974;7.824;2022-12-11T13:19:36;27.70;;;14.30;;
8213;SDS011;4148;47.974;7.824;2022-12-11T13:22:19;24.17;;;15.20;;
8213;SDS011;4148;47.974;7.824;2022-12-11T13:24:55;27.20;;;14.60;;
8213;SDS011;4148;47.974;7.824;2022-12-11T13:27:35;26.03;;;14.77;;
8213;SDS011;4148;47.974;7.824;2022-12-11T13:30:06;26.50;;;14.93;;
8213;SDS011;4148;47.974;7.824;2022-12-11T13:32:48;27.57;;;14.73;;
8213;SDS011;4148;47.974;7.824;2022-12-11T13:35:26;29.07;;;15.47;;
8213;SDS011;4148;47.974;7.824;2022-12-11T13:37:56;26.03;;;13.50;;
8213;SDS011;4148;47.974;7.824;2022-12-11T13:40:32;26.53;;;14.57;;
8213;SDS011;4148;47.974;7.824;2022-12-11T13:43:08;25.17;;;13.90;;
8213;SDS011;4148;47.974;7.824;2022-12-11T13:45:45;24.83;;;14.13;;
8213;SDS011;4148;47.974;7.824;2022-12-11T13:48:20;23.93;;;13.10;;
8213;SDS011;4148;47.974;7.824;2022-12-11T13:50:52;32.10;;;16.97;;
8213;SDS011;4148;47.974;7.824;2022-12-11T13:53:21;31.50;;;14.97;;
8213;SDS011;4148;47.974;7.824;2022-12-11T13:55:56;24.00;;;13.33;;
8213;SDS011;4148;47.974;7.824;2022-12-11T13:58:25;23.90;;;14.13;;
8213;SDS011;4148;47.974;7.824;2022-12-11T14:00:57;25.20;;;13.57;;
8213;SDS011;4148;47.974;7.824;2022-12-11T14:03:32;24.60;;;12.50;;
8213;SDS011;4148;47.974;7.824;2022-12-11T14:06:02;27.60;;;13.97;;
8213;SDS011;4148;47.974;7.824;2022-12-11T14:08:32;25.83;;;13.07;;
8213;SDS011;4148;47.974;7.824;2022-12-11T14:11:01;26.60;;;12.70;;
8213;SDS011;4148;47.974;7.824;2022-12-11T14:13:30;23.00;;;12.50;;
8213;SDS011;4148;47.974;7.824;2022-12-11T14:16:01;24.07;;;13.10;;
8213;SDS011;4148;47.974;7.824;2022-12-11T14:18:30;25.30;;;13.37;;
8213;SDS011;4148;47.974;7.824;2022-12-11T14:21:00;21.60;;;11.77;;
8213;SDS011;4148;47.974;7.824;2022-12-11T14:23:31;23.77;;;12.60;;
8213;SDS011;4148;47.974;7.824;2022-12-11T14:26:00;27.90;;;14.03;;
8213;SDS011;4148;47.974;7.824;2022-12-11T14:28:35;28.20;;;14.63;;
8213;SDS011;4148;47.974;7.824;2022-12-11T14:31:04;27.90;;;14.27;;
8213;SDS011;4148;47.974;7.824;2022-12-11T14:33:34;30.10;;;14.60;;
8213;SDS011;4148;47.974;7.824;2022-12-11T14:36:08;30.07;;;15.07;;
8213;SDS011;4148;47.974;7.824;2022-12-11T14:38:38;21.60;;;13.00;;
8213;SDS011;4148;47.974;7.824;2022-12-11T14:41:12;25.33;;;14.40;;
8213;SDS011;4148;47.974;7.824;2022-12-11T14:43:50;25.67;;;12.93;;
8213;SDS011;4148;47.974;7.824;2022-12-11T14:46:21;22.43;;;12.50;;
8213;SDS011;4148;47.974;7.824;2022-12-11T14:48:53;26.00;;;13.13;;
8213;SDS011;4148;47.974;7.824;2022-12-11T14:51:28;24.07;;;12.90;;
8213;SDS011;4148;47.974;7.824;2022-12-11T14:54:01;26.17;;;13.80;;
8213;SDS011;4148;47.974;7.824;2022-12-11T14:56:31;24.63;;;13.70;;
8213;SDS011;4148;47.974;7.824;2022-12-11T14:59:01;26.77;;;14.90;;
8213;SDS011;4148;47.974;7.824;2022-12-11T15:01:33;26.73;;;13.23;;
8213;SDS011;4148;47.974;7.824;2022-12-11T15:04:04;25.97;;;13.40;;
8213;SDS011;4148;47.974;7.824;2022-12-11T15:06:47;27.53;;;14.63;;
8213;SDS011;4148;47.974;7.824;2022-12-11T15:09:17;23.47;;;12.87;;
8213;SDS011;4148;47.974;7.824;2022-12-11T15:11:47;30.17;;;15.23;;
8213;SDS011;4148;47.974;7.824;2022-12-11T15:14:17;29.27;;;14.87;;
8213;SDS011;4148;47.974;7.824;2022-12-11T15:16:47;31.03;;;15.13;;
8213;SDS011;4148;47.974;7.824;2022-12-11T15:19:20;27.30;;;13.97;;
8213;SDS011;4148;47.974;7.824;2022-12-11T15:21:52;26.97;;;15.10;;
8213;SDS011;4148;47.974;7.824;2022-12-11T15:24:21;24.50;;;12.60;;
8213;SDS011;4148;47.974;7.824;2022-12-11T15:26:55;26.33;;;13.90;;